createdAt,value
2023-03-21T00:00:40.296Z,996.72
2023-03-21T00:01:40.297Z,996.79
2023-03-21T00:02:40.273Z,996.67
2023-03-21T00:03:40.273Z,996.70
2023-03-21T00:04:50.956Z,996.67
2023-03-21T00:05:42.429Z,996.73
2023-03-21T00:06:40.242Z,996.68
2023-03-21T00:07:40.226Z,996.66
2023-03-21T00:08:40.268Z,996.64
2023-03-21T00:09:40.238Z,996.69
2023-03-21T00:10:42.153Z,996.63
2023-03-21T00:11:41.226Z,996.63
2023-03-21T00:12:40.189Z,996.73
2023-03-21T00:13:40.183Z,996.70
2023-03-21T00:14:40.190Z,996.63
2023-03-21T00:15:48.414Z,996.74
2023-03-21T00:16:42.212Z,996.75
2023-03-21T00:17:40.147Z,996.71
2023-03-21T00:18:40.130Z,996.69
2023-03-21T00:19:40.153Z,996.68
2023-03-21T00:20:40.114Z,996.77
2023-03-21T00:21:55.277Z,996.74
2023-03-21T00:22:42.113Z,996.67
2023-03-21T00:23:40.115Z,996.74
2023-03-21T00:24:40.117Z,996.73
2023-03-21T00:25:40.327Z,996.66
2023-03-21T00:26:40.087Z,996.71
2023-03-21T00:27:56.934Z,996.73
2023-03-21T00:28:42.071Z,996.71
2023-03-21T00:29:40.074Z,996.68
2023-03-21T00:30:40.047Z,996.70
2023-03-21T00:31:40.129Z,996.64
2023-03-21T00:32:53.302Z,996.67
2023-03-21T00:33:42.064Z,996.65
2023-03-21T00:34:43.364Z,996.65
2023-03-21T00:36:06.451Z,996.69
2023-03-21T00:36:42.059Z,996.68
2023-03-21T00:37:39.986Z,996.70
2023-03-21T00:38:40.013Z,996.73
2023-03-21T00:39:40.035Z,996.69
2023-03-21T00:40:48.743Z,996.70
2023-03-21T00:41:43.445Z,996.73
2023-03-21T00:42:40.962Z,996.68
2023-03-21T00:43:39.952Z,996.64
2023-03-21T00:44:39.969Z,996.60
2023-03-21T00:45:39.939Z,996.65
2023-03-21T00:46:47.321Z,996.62
2023-03-21T00:47:41.976Z,996.64
2023-03-21T00:48:39.912Z,996.64
2023-03-21T00:49:39.934Z,996.57
2023-03-21T00:50:39.896Z,996.60
2023-03-21T00:51:39.897Z,996.60
2023-03-21T00:52:41.319Z,996.61
2023-03-21T00:53:40.867Z,996.56
2023-03-21T00:54:39.901Z,996.52
2023-03-21T00:55:39.862Z,996.56
2023-03-21T00:56:39.859Z,996.53
2023-03-21T00:57:39.920Z,996.43
2023-03-21T00:58:40.834Z,996.49
2023-03-21T00:59:39.857Z,996.53
2023-03-21T01:00:39.913Z,996.48
2023-03-21T01:01:39.862Z,996.45
2023-03-21T01:02:40.797Z,996.39
2023-03-21T01:03:39.804Z,996.42
2023-03-21T01:04:39.845Z,996.40
2023-03-21T01:05:39.792Z,996.40
2023-03-21T01:06:39.787Z,996.44
2023-03-21T01:07:39.764Z,996.40
2023-03-21T01:08:52.109Z,996.36
2023-03-21T01:09:41.777Z,996.41
2023-03-21T01:10:39.757Z,996.41
2023-03-21T01:11:39.732Z,996.42
2023-03-21T01:12:39.721Z,996.40
2023-03-21T01:13:47.579Z,996.40
2023-03-21T01:14:41.737Z,996.38
2023-03-21T01:15:39.709Z,996.41
2023-03-21T01:16:39.721Z,996.36
2023-03-21T01:17:39.688Z,996.36
2023-03-21T01:18:39.678Z,996.37
2023-03-21T01:19:51.168Z,996.39
2023-03-21T01:20:41.669Z,996.38
2023-03-21T01:21:39.686Z,996.39
2023-03-21T01:22:39.642Z,996.43
2023-03-21T01:23:39.637Z,996.42
2023-03-21T01:24:50.245Z,996.41
2023-03-21T01:25:41.633Z,996.38
2023-03-21T01:26:39.643Z,996.37
2023-03-21T01:27:39.610Z,996.31
2023-03-21T01:28:39.615Z,996.37
2023-03-21T01:29:39.658Z,996.36
2023-03-21T01:30:41.985Z,996.35
2023-03-21T01:31:40.631Z,996.26
2023-03-21T01:32:39.577Z,996.33
2023-03-21T01:33:39.590Z,996.30
2023-03-21T01:34:39.588Z,996.35
2023-03-21T01:35:49.125Z,996.36
2023-03-21T01:36:41.601Z,996.30
2023-03-21T01:37:39.535Z,996.32
2023-03-21T01:38:39.526Z,996.42
2023-03-21T01:39:39.507Z,996.31
2023-03-21T01:40:39.532Z,996.27
2023-03-21T01:41:43.368Z,996.30
2023-03-21T01:42:40.493Z,996.24
2023-03-21T01:43:39.511Z,996.28
2023-03-21T01:44:39.457Z,996.29
2023-03-21T01:45:40.617Z,996.31
2023-03-21T01:46:51.549Z,996.31
2023-03-21T01:47:41.490Z,996.29
2023-03-21T01:48:39.446Z,996.32
2023-03-21T01:49:39.433Z,996.33
2023-03-21T01:50:39.448Z,996.28
2023-03-21T01:51:39.422Z,996.27
2023-03-21T01:52:39.569Z,996.24
2023-03-21T01:53:39.439Z,996.26
2023-03-21T01:54:39.421Z,996.25
2023-03-21T01:55:39.751Z,996.21
2023-03-21T01:56:39.390Z,996.26
2023-03-21T01:57:43.844Z,996.22
2023-03-21T01:58:41.398Z,996.21
2023-03-21T01:59:39.358Z,996.23
2023-03-21T02:00:39.412Z,996.11
2023-03-21T02:01:39.367Z,996.25
2023-03-21T02:02:39.338Z,996.21
2023-03-21T02:03:39.361Z,996.24
2023-03-21T02:04:39.329Z,996.22
2023-03-21T02:05:39.648Z,996.29
2023-03-21T02:06:39.297Z,996.25
2023-03-21T02:07:40.301Z,996.13
2023-03-21T02:08:40.080Z,996.19
2023-03-21T02:09:40.356Z,996.16
2023-03-21T02:10:39.700Z,996.18
2023-03-21T02:11:39.286Z,996.12
2023-03-21T02:12:39.258Z,996.19
2023-03-21T02:13:39.284Z,996.11
2023-03-21T02:14:39.254Z,996.16
2023-03-21T02:15:39.318Z,996.13
2023-03-21T02:16:39.244Z,996.20
2023-03-21T02:17:39.230Z,996.14
2023-03-21T02:18:39.198Z,996.11
2023-03-21T02:19:47.680Z,996.17
2023-03-21T02:20:41.216Z,996.06
2023-03-21T02:21:39.188Z,996.11
2023-03-21T02:22:39.183Z,996.13
2023-03-21T02:23:39.167Z,996.08
2023-03-21T02:24:40.028Z,996.09
2023-03-21T02:25:39.513Z,996.05
2023-03-21T02:26:42.482Z,996.02
2023-03-21T02:27:40.137Z,996.03
2023-03-21T02:28:39.248Z,995.92
2023-03-21T02:29:39.122Z,995.99
2023-03-21T02:30:50.867Z,995.97
2023-03-21T02:31:41.161Z,995.97
2023-03-21T02:32:39.185Z,995.82
2023-03-21T02:33:39.098Z,995.90
2023-03-21T02:34:39.114Z,995.88
2023-03-21T02:35:46.979Z,995.84
2023-03-21T02:36:41.100Z,995.77
2023-03-21T02:37:39.333Z,995.84
2023-03-21T02:38:39.064Z,995.81
2023-03-21T02:39:39.038Z,995.72
2023-03-21T02:40:39.442Z,995.72
2023-03-21T02:41:40.288Z,995.74
2023-03-21T02:42:41.064Z,995.80
2023-03-21T02:43:39.012Z,995.80
2023-03-21T02:44:39.015Z,995.74
2023-03-21T02:45:39.025Z,995.69
2023-03-21T02:46:45.424Z,995.72
2023-03-21T02:47:41.039Z,995.84
2023-03-21T02:48:50.264Z,995.75
2023-03-21T02:49:40.968Z,995.72
2023-03-21T02:50:39.201Z,995.73
2023-03-21T02:51:38.955Z,995.76
2023-03-21T02:52:39.830Z,995.71
2023-03-21T02:53:39.957Z,995.71
2023-03-21T02:54:47.943Z,995.74
2023-03-21T02:55:40.969Z,995.82
2023-03-21T02:56:38.905Z,995.87
2023-03-21T02:57:43.127Z,995.81
2023-03-21T02:58:39.896Z,995.71
2023-03-21T02:59:44.469Z,995.80
2023-03-21T03:00:40.885Z,995.75
2023-03-21T03:01:38.992Z,995.70
2023-03-21T03:02:38.868Z,995.70
2023-03-21T03:03:38.892Z,995.67
2023-03-21T03:04:38.902Z,995.68
2023-03-21T03:05:38.909Z,995.64
2023-03-21T03:06:38.866Z,995.66
2023-03-21T03:07:38.836Z,995.66
2023-03-21T03:08:47.580Z,995.61
2023-03-21T03:09:40.827Z,995.66
2023-03-21T03:10:38.989Z,995.61
2023-03-21T03:11:38.826Z,995.68
2023-03-21T03:12:38.780Z,995.66
2023-03-21T03:13:38.780Z,995.70
2023-03-21T03:15:00.126Z,995.59
2023-03-21T03:15:40.788Z,995.60
2023-03-21T03:16:38.781Z,995.69
2023-03-21T03:17:38.753Z,995.65
2023-03-21T03:18:38.768Z,995.65
2023-03-21T03:19:49.396Z,995.67
2023-03-21T03:20:40.763Z,995.68
2023-03-21T03:21:38.750Z,995.72
2023-03-21T03:22:38.713Z,995.64
2023-03-21T03:23:38.702Z,995.60
2023-03-21T03:24:38.693Z,995.69
2023-03-21T03:25:43.016Z,995.64
2023-03-21T03:26:39.712Z,995.72
2023-03-21T03:27:38.780Z,995.67
2023-03-21T03:28:38.662Z,995.68
2023-03-21T03:29:38.664Z,995.60
2023-03-21T03:30:46.507Z,995.57
2023-03-21T03:31:40.836Z,995.59
2023-03-21T03:32:38.628Z,995.56
2023-03-21T03:33:38.635Z,995.48
2023-03-21T03:34:38.615Z,995.55
2023-03-21T03:35:38.657Z,995.58
2023-03-21T03:36:38.673Z,995.59
2023-03-21T03:37:38.603Z,995.54
2023-03-21T03:38:38.581Z,995.55
2023-03-21T03:39:39.361Z,995.48
2023-03-21T03:40:38.840Z,995.49
2023-03-21T03:42:03.045Z,995.49
2023-03-21T03:42:40.610Z,995.51
2023-03-21T03:43:38.540Z,995.50
2023-03-21T03:44:38.538Z,995.52
2023-03-21T03:45:38.532Z,995.44
2023-03-21T03:46:38.602Z,995.50
2023-03-21T03:47:50.678Z,995.47
2023-03-21T03:48:40.562Z,995.47
2023-03-21T03:49:38.495Z,995.46
2023-03-21T03:50:38.756Z,995.42
2023-03-21T03:51:38.548Z,995.47
2023-03-21T03:52:50.087Z,995.53
2023-03-21T03:53:40.468Z,995.40
2023-03-21T03:54:38.472Z,995.43
2023-03-21T03:55:38.454Z,995.50
2023-03-21T03:56:38.441Z,995.43
2023-03-21T03:57:38.468Z,995.54
2023-03-21T03:58:45.229Z,995.42
2023-03-21T03:59:40.421Z,995.51
2023-03-21T04:00:38.679Z,995.53
2023-03-21T04:01:38.476Z,995.45
2023-03-21T04:02:38.475Z,995.51
2023-03-21T04:03:48.497Z,995.47
2023-03-21T04:04:40.428Z,995.52
2023-03-21T04:05:38.387Z,995.49
2023-03-21T04:06:38.369Z,995.56
2023-03-21T04:07:38.393Z,995.50
2023-03-21T04:08:38.362Z,995.53
2023-03-21T04:09:44.627Z,995.49
2023-03-21T04:10:40.346Z,995.55
2023-03-21T04:11:38.325Z,995.52
2023-03-21T04:12:38.349Z,995.56
2023-03-21T04:13:38.420Z,995.52
2023-03-21T04:14:44.418Z,995.56
2023-03-21T04:15:40.304Z,995.55
2023-03-21T04:16:38.370Z,995.62
2023-03-21T04:17:38.310Z,995.55
2023-03-21T04:18:38.294Z,995.52
2023-03-21T04:19:38.267Z,995.55
2023-03-21T04:20:38.255Z,995.55
2023-03-21T04:21:38.283Z,995.54
2023-03-21T04:22:38.265Z,995.56
2023-03-21T04:23:38.243Z,995.57
2023-03-21T04:24:38.275Z,995.57
2023-03-21T04:25:44.566Z,995.55
2023-03-21T04:26:40.209Z,995.56
2023-03-21T04:27:38.230Z,995.54
2023-03-21T04:28:38.192Z,995.56
2023-03-21T04:29:38.193Z,995.56
2023-03-21T04:30:38.715Z,995.54
2023-03-21T04:31:38.224Z,995.58
2023-03-21T04:32:38.192Z,995.64
2023-03-21T04:33:38.178Z,995.63
2023-03-21T04:34:38.145Z,995.50
2023-03-21T04:35:38.216Z,995.56
2023-03-21T04:36:38.156Z,995.46
2023-03-21T04:37:38.154Z,995.55
2023-03-21T04:38:38.126Z,995.47
2023-03-21T04:39:38.131Z,995.45
2023-03-21T04:40:38.329Z,995.36
2023-03-21T04:41:38.106Z,995.49
2023-03-21T04:42:38.118Z,995.43
2023-03-21T04:43:38.082Z,995.47
2023-03-21T04:44:38.070Z,995.44
2023-03-21T04:45:38.071Z,995.48
2023-03-21T04:46:38.069Z,995.49
2023-03-21T04:47:38.099Z,995.43
2023-03-21T04:48:38.034Z,995.41
2023-03-21T04:49:38.032Z,995.45
2023-03-21T04:50:38.349Z,995.41
2023-03-21T04:51:38.057Z,995.45
2023-03-21T04:52:38.033Z,995.42
2023-03-21T04:53:38.016Z,995.42
2023-03-21T04:54:37.998Z,995.41
2023-03-21T04:55:38.258Z,995.50
2023-03-21T04:56:38.059Z,995.42
2023-03-21T04:57:37.992Z,995.44
2023-03-21T04:58:38.004Z,995.33
2023-03-21T04:59:38.009Z,995.45
2023-03-21T05:00:37.955Z,995.44
2023-03-21T05:01:37.979Z,995.39
2023-03-21T05:02:37.975Z,995.44
2023-03-21T05:03:39.084Z,995.40
2023-03-21T05:04:37.961Z,995.46
2023-03-21T05:05:38.143Z,995.36
2023-03-21T05:06:37.897Z,995.44
2023-03-21T05:07:37.923Z,995.41
2023-03-21T05:08:37.884Z,995.42
2023-03-21T05:09:37.886Z,995.38
2023-03-21T05:10:37.878Z,995.38
2023-03-21T05:11:37.972Z,995.45
2023-03-21T05:12:37.882Z,995.33
2023-03-21T05:13:37.882Z,995.37
2023-03-21T05:14:37.851Z,995.34
2023-03-21T05:15:38.214Z,995.38
2023-03-21T05:16:37.853Z,995.40
2023-03-21T05:17:37.843Z,995.38
2023-03-21T05:18:37.815Z,995.38
2023-03-21T05:19:37.808Z,995.35
2023-03-21T05:20:37.801Z,995.44
2023-03-21T05:21:37.896Z,995.43
2023-03-21T05:22:37.808Z,995.47
2023-03-21T05:23:37.775Z,995.42
2023-03-21T05:24:37.765Z,995.46
2023-03-21T05:25:38.041Z,995.47
2023-03-21T05:26:37.812Z,995.49
2023-03-21T05:27:37.778Z,995.50
2023-03-21T05:28:38.726Z,995.48
2023-03-21T05:29:37.729Z,995.47
2023-03-21T05:30:37.819Z,995.47
2023-03-21T05:31:37.752Z,995.46
2023-03-21T05:32:37.701Z,995.39
2023-03-21T05:33:37.729Z,995.43
2023-03-21T05:34:37.678Z,995.30
2023-03-21T05:35:37.980Z,995.40
2023-03-21T05:36:37.665Z,995.36
2023-03-21T05:37:37.659Z,995.31
2023-03-21T05:38:37.681Z,995.35
2023-03-21T05:39:37.665Z,995.35
2023-03-21T05:40:37.639Z,995.28
2023-03-21T05:41:37.620Z,995.32
2023-03-21T05:42:37.622Z,995.31
2023-03-21T05:43:37.653Z,995.26
2023-03-21T05:44:37.614Z,995.22
2023-03-21T05:45:37.876Z,995.27
2023-03-21T05:46:37.621Z,995.26
2023-03-21T05:47:37.578Z,995.26
2023-03-21T05:48:37.603Z,995.33
2023-03-21T05:49:37.595Z,995.26
2023-03-21T05:50:37.552Z,995.27
2023-03-21T05:51:37.554Z,995.28
2023-03-21T05:52:37.550Z,995.35
2023-03-21T05:53:37.564Z,995.29
2023-03-21T05:54:37.534Z,995.29
2023-03-21T05:55:37.794Z,995.33
2023-03-21T05:56:37.516Z,995.32
2023-03-21T05:57:37.509Z,995.30
2023-03-21T05:58:37.529Z,995.30
2023-03-21T05:59:37.494Z,995.31
2023-03-21T06:00:37.484Z,995.34
2023-03-21T06:01:37.482Z,995.35
2023-03-21T06:02:37.525Z,995.31
2023-03-21T06:03:37.591Z,995.37
2023-03-21T06:04:37.467Z,995.37
2023-03-21T06:05:38.762Z,995.40
2023-03-21T06:06:37.443Z,995.38
2023-03-21T06:07:37.427Z,995.35
2023-03-21T06:08:37.455Z,995.42
2023-03-21T06:09:37.411Z,995.40
2023-03-21T06:10:37.443Z,995.43
2023-03-21T06:11:37.409Z,995.41
2023-03-21T06:12:37.403Z,995.42
2023-03-21T06:13:37.422Z,995.43
2023-03-21T06:14:37.382Z,995.32
2023-03-21T06:15:37.542Z,995.36
2023-03-21T06:16:37.416Z,995.37
2023-03-21T06:17:37.389Z,995.34
2023-03-21T06:18:37.382Z,995.33
2023-03-21T06:19:37.365Z,995.30
2023-03-21T06:20:37.346Z,995.31
2023-03-21T06:21:38.331Z,995.35
2023-03-21T06:22:37.330Z,995.33
2023-03-21T06:23:37.338Z,995.33
2023-03-21T06:24:37.303Z,995.22
2023-03-21T06:25:37.512Z,995.32
2023-03-21T06:26:37.351Z,995.30
2023-03-21T06:27:37.288Z,995.33
2023-03-21T06:28:37.317Z,995.33
2023-03-21T06:29:37.266Z,995.34
2023-03-21T06:30:37.259Z,995.39
2023-03-21T06:31:37.296Z,995.27
2023-03-21T06:32:37.264Z,995.37
2023-03-21T06:33:37.262Z,995.38
2023-03-21T06:34:39.385Z,995.36
2023-03-21T06:35:37.464Z,995.37
2023-03-21T06:36:37.246Z,995.32
2023-03-21T06:37:37.219Z,995.39
2023-03-21T06:38:37.218Z,995.35
2023-03-21T06:39:37.182Z,995.30
2023-03-21T06:40:37.172Z,995.36
2023-03-21T06:41:37.168Z,995.32
2023-03-21T06:42:37.160Z,995.31
2023-03-21T06:43:37.181Z,995.32
2023-03-21T06:44:37.138Z,995.39
2023-03-21T06:45:37.449Z,995.43
2023-03-21T06:46:37.144Z,995.43
2023-03-21T06:47:38.123Z,995.41
2023-03-21T06:48:37.133Z,995.37
2023-03-21T06:49:37.106Z,995.39
2023-03-21T06:50:37.096Z,995.42
2023-03-21T06:51:37.084Z,995.34
2023-03-21T06:52:37.085Z,995.38
2023-03-21T06:53:37.112Z,995.32
2023-03-21T06:54:37.064Z,995.41
2023-03-21T06:55:38.416Z,995.31
2023-03-21T06:56:37.056Z,995.44
2023-03-21T06:57:37.078Z,995.34
2023-03-21T06:58:37.059Z,995.43
2023-03-21T06:59:37.030Z,995.40
2023-03-21T07:00:37.073Z,995.38
2023-03-21T07:01:37.014Z,995.46
2023-03-21T07:02:38.061Z,995.37
2023-03-21T07:03:37.030Z,995.45
2023-03-21T07:04:36.982Z,995.39
2023-03-21T07:05:38.273Z,995.50
2023-03-21T07:06:36.996Z,995.39
2023-03-21T07:07:36.999Z,995.47
2023-03-21T07:08:37.029Z,995.45
2023-03-21T07:09:36.955Z,995.55
2023-03-21T07:10:36.944Z,995.59
2023-03-21T07:11:36.972Z,995.59
2023-03-21T07:12:36.939Z,995.69
2023-03-21T07:13:36.945Z,995.56
2023-03-21T07:14:36.917Z,995.70
2023-03-21T07:15:37.210Z,995.65
2023-03-21T07:16:36.920Z,995.64
2023-03-21T07:17:36.920Z,995.63
2023-03-21T07:18:36.912Z,995.64
2023-03-21T07:19:36.894Z,995.63
2023-03-21T07:20:36.934Z,995.65
2023-03-21T07:21:36.861Z,995.66
2023-03-21T07:22:36.953Z,995.60
2023-03-21T07:23:36.878Z,995.67
2023-03-21T07:24:36.851Z,995.56
2023-03-21T07:25:37.214Z,995.65
2023-03-21T07:26:36.874Z,995.56
2023-03-21T07:27:38.594Z,995.53
2023-03-21T07:28:36.847Z,995.51
2023-03-21T07:29:36.833Z,995.56
2023-03-21T07:30:36.814Z,995.63
2023-03-21T07:31:36.867Z,995.68
2023-03-21T07:32:36.797Z,995.63
2023-03-21T07:33:36.809Z,995.57
2023-03-21T07:34:36.770Z,995.61
2023-03-21T07:35:37.191Z,995.53
2023-03-21T07:36:36.760Z,995.56
2023-03-21T07:37:38.115Z,995.56
2023-03-21T07:38:37.820Z,995.54
2023-03-21T07:39:36.726Z,995.56
2023-03-21T07:40:37.076Z,995.55
2023-03-21T07:41:36.723Z,995.50
2023-03-21T07:42:36.728Z,995.59
2023-03-21T07:43:39.037Z,995.47
2023-03-21T07:44:36.700Z,995.52
2023-03-21T07:45:36.886Z,995.47
2023-03-21T07:46:36.678Z,995.55
2023-03-21T07:47:36.702Z,995.48
2023-03-21T07:48:36.683Z,995.52
2023-03-21T07:49:36.650Z,995.44
2023-03-21T07:50:36.731Z,995.46
2023-03-21T07:51:36.655Z,995.50
2023-03-21T07:52:36.665Z,995.46
2023-03-21T07:53:36.667Z,995.43
2023-03-21T07:54:36.609Z,995.44
2023-03-21T07:55:36.922Z,995.42
2023-03-21T07:56:36.606Z,995.39
2023-03-21T07:57:36.638Z,995.40
2023-03-21T07:58:36.610Z,995.35
2023-03-21T07:59:36.578Z,995.44
2023-03-21T08:00:36.573Z,995.34
2023-03-21T08:01:36.576Z,995.34
2023-03-21T08:02:36.612Z,995.34
2023-03-21T08:03:36.929Z,995.33
2023-03-21T08:04:36.538Z,995.34
2023-03-21T08:05:37.051Z,995.33
2023-03-21T08:06:36.531Z,995.35
2023-03-21T08:07:36.514Z,995.33
2023-03-21T08:08:36.537Z,995.32
2023-03-21T08:09:36.515Z,995.30
2023-03-21T08:10:36.480Z,995.25
2023-03-21T08:11:37.502Z,995.30
2023-03-21T08:12:36.492Z,995.38
2023-03-21T08:13:36.474Z,995.32
2023-03-21T08:14:36.497Z,995.37
2023-03-21T08:15:36.622Z,995.36
2023-03-21T08:16:37.482Z,995.33
2023-03-21T08:17:36.458Z,995.33
2023-03-21T08:18:36.427Z,995.32
2023-03-21T08:19:36.440Z,995.33
2023-03-21T08:20:36.420Z,995.33
2023-03-21T08:21:36.405Z,995.29
2023-03-21T08:22:36.393Z,995.23
2023-03-21T08:23:36.395Z,995.31
2023-03-21T08:24:36.411Z,995.21
2023-03-21T08:25:36.690Z,995.24
2023-03-21T08:26:36.369Z,995.20
2023-03-21T08:27:36.400Z,995.24
2023-03-21T08:28:36.389Z,995.21
2023-03-21T08:29:36.375Z,995.17
2023-03-21T08:30:36.375Z,995.22
2023-03-21T08:31:36.393Z,995.18
2023-03-21T08:32:36.323Z,995.18
2023-03-21T08:33:36.317Z,995.21
2023-03-21T08:34:36.367Z,995.23
2023-03-21T08:35:38.356Z,995.24
2023-03-21T08:36:36.285Z,995.23
2023-03-21T08:37:36.283Z,995.19
2023-03-21T08:38:36.269Z,995.25
2023-03-21T08:39:36.321Z,995.19
2023-03-21T08:40:36.252Z,995.20
2023-03-21T08:41:36.261Z,995.26
2023-03-21T08:42:36.242Z,995.26
2023-03-21T08:43:36.267Z,995.24
2023-03-21T08:44:36.258Z,995.25
2023-03-21T08:45:36.405Z,995.24
2023-03-21T08:46:36.263Z,995.25
2023-03-21T08:47:36.891Z,995.18
2023-03-21T08:48:36.195Z,995.24
2023-03-21T08:49:36.217Z,995.21
2023-03-21T08:50:36.176Z,995.26
2023-03-21T08:51:36.174Z,995.17
2023-03-21T08:52:36.170Z,995.12
2023-03-21T08:53:36.155Z,995.19
2023-03-21T08:54:36.170Z,995.17
2023-03-21T08:55:36.324Z,995.12
2023-03-21T08:56:37.473Z,995.16
2023-03-21T08:57:37.143Z,995.16
2023-03-21T08:58:36.117Z,995.19
2023-03-21T08:59:36.127Z,995.19
2023-03-21T09:00:36.098Z,995.18
2023-03-21T09:01:36.153Z,995.20
2023-03-21T09:02:36.096Z,995.28
2023-03-21T09:03:36.080Z,995.16
2023-03-21T09:04:36.128Z,995.24
2023-03-21T09:05:36.519Z,995.25
2023-03-21T09:06:36.361Z,995.25
2023-03-21T09:07:36.045Z,995.27
2023-03-21T09:08:36.040Z,995.26
2023-03-21T09:09:36.062Z,995.20
2023-03-21T09:10:36.028Z,995.27
2023-03-21T09:11:36.017Z,995.28
2023-03-21T09:12:36.040Z,995.30
2023-03-21T09:13:36.113Z,995.26
2023-03-21T09:14:36.049Z,995.26
2023-03-21T09:15:36.045Z,995.16
2023-03-21T09:16:35.982Z,995.18
2023-03-21T09:17:35.972Z,995.20
2023-03-21T09:18:35.960Z,995.11
2023-03-21T09:19:35.982Z,995.11
2023-03-21T09:20:35.961Z,995.22
2023-03-21T09:21:35.945Z,995.16
2023-03-21T09:22:35.957Z,995.21
2023-03-21T09:23:36.043Z,995.10
2023-03-21T09:24:35.992Z,995.11
2023-03-21T09:25:36.375Z,995.10
2023-03-21T09:26:35.916Z,995.10
2023-03-21T09:27:35.950Z,995.14
2023-03-21T09:28:35.921Z,995.15
2023-03-21T09:29:35.903Z,995.15
2023-03-21T09:30:35.880Z,995.17
2023-03-21T09:31:35.879Z,995.11
2023-03-21T09:32:35.861Z,995.12
2023-03-21T09:33:35.853Z,995.09
2023-03-21T09:34:35.865Z,995.09
2023-03-21T09:35:35.896Z,995.10
2023-03-21T09:36:35.840Z,995.02
2023-03-21T09:37:35.826Z,995.06
2023-03-21T09:38:35.936Z,995.09
2023-03-21T09:39:35.830Z,995.01
2023-03-21T09:40:35.800Z,995.08
2023-03-21T09:41:35.789Z,995.07
2023-03-21T09:42:35.788Z,995.06
2023-03-21T09:43:35.786Z,995.00
2023-03-21T09:44:35.793Z,995.02
2023-03-21T09:45:35.914Z,995.05
2023-03-21T09:46:35.809Z,995.05
2023-03-21T09:47:35.742Z,994.97
2023-03-21T09:48:37.670Z,994.94
2023-03-21T09:49:35.769Z,994.97
2023-03-21T09:50:35.726Z,994.89
2023-03-21T09:51:35.715Z,994.92
2023-03-21T09:52:35.703Z,994.91
2023-03-21T09:53:35.701Z,994.95
2023-03-21T09:54:35.717Z,994.93
2023-03-21T09:55:35.841Z,994.90
2023-03-21T09:56:35.674Z,994.99
2023-03-21T09:57:35.674Z,994.87
2023-03-21T09:58:35.702Z,994.93
2023-03-21T09:59:35.675Z,994.91
2023-03-21T10:00:35.720Z,994.89
2023-03-21T10:01:35.637Z,994.87
2023-03-21T10:02:35.624Z,994.94
2023-03-21T10:03:35.635Z,994.88
2023-03-21T10:04:35.643Z,994.93
2023-03-21T10:05:35.853Z,994.92
2023-03-21T10:06:35.618Z,994.85
2023-03-21T10:07:35.600Z,994.97
2023-03-21T10:08:35.630Z,994.86
2023-03-21T10:09:35.622Z,994.81
2023-03-21T10:10:35.643Z,994.87
2023-03-21T10:11:35.564Z,994.83
2023-03-21T10:12:35.552Z,994.88
2023-03-21T10:13:35.521Z,994.84
2023-03-21T10:14:36.567Z,994.86
2023-03-21T10:15:35.647Z,994.93
2023-03-21T10:16:35.593Z,994.87
2023-03-21T10:17:35.502Z,994.88
2023-03-21T10:18:35.499Z,994.82
2023-03-21T10:19:35.487Z,994.83
2023-03-21T10:20:35.501Z,994.82
2023-03-21T10:21:59.167Z,994.82
2023-03-21T10:22:37.487Z,994.81
2023-03-21T10:23:35.456Z,994.69
2023-03-21T10:24:35.470Z,994.85
2023-03-21T10:25:35.490Z,994.78
2023-03-21T10:26:35.442Z,994.76
2023-03-21T10:27:35.423Z,994.78
2023-03-21T10:28:49.872Z,994.73
2023-03-21T10:29:37.561Z,994.80
2023-03-21T10:30:35.431Z,994.75
2023-03-21T10:31:35.421Z,994.75
2023-03-21T10:32:35.400Z,994.73
2023-03-21T10:33:35.388Z,994.80
2023-03-21T10:34:35.388Z,994.77
2023-03-21T10:35:35.544Z,994.82
2023-03-21T10:36:35.370Z,994.75
2023-03-21T10:37:35.344Z,994.76
2023-03-21T10:38:35.355Z,994.78
2023-03-21T10:39:35.370Z,994.76
2023-03-21T10:40:35.707Z,994.75
2023-03-21T10:41:35.320Z,994.71
2023-03-21T10:42:35.316Z,994.82
2023-03-21T10:43:35.314Z,994.72
2023-03-21T10:44:35.294Z,994.78
2023-03-21T10:45:35.517Z,994.72
2023-03-21T10:46:36.354Z,994.78
2023-03-21T10:47:36.361Z,994.70
2023-03-21T10:48:35.368Z,994.72
2023-03-21T10:49:40.658Z,994.73
2023-03-21T10:50:37.315Z,994.77
2023-03-21T10:51:35.235Z,994.71
2023-03-21T10:52:35.234Z,994.75
2023-03-21T10:53:35.243Z,994.72
2023-03-21T10:54:35.206Z,994.72
2023-03-21T10:55:35.242Z,994.71
2023-03-21T10:56:35.251Z,994.69
2023-03-21T10:57:36.097Z,994.68
2023-03-21T10:58:36.108Z,994.64
2023-03-21T10:59:35.178Z,994.69
2023-03-21T11:00:35.201Z,994.64
2023-03-21T11:01:35.265Z,994.62
2023-03-21T11:02:35.197Z,994.65
2023-03-21T11:03:35.147Z,994.64
2023-03-21T11:04:35.135Z,994.69
2023-03-21T11:05:35.152Z,994.70
2023-03-21T11:06:35.119Z,994.67
2023-03-21T11:07:35.132Z,994.66
2023-03-21T11:08:35.108Z,994.69
2023-03-21T11:09:35.101Z,994.68
2023-03-21T11:10:35.129Z,994.67
2023-03-21T11:11:35.112Z,994.69
2023-03-21T11:12:35.082Z,994.71
2023-03-21T11:13:35.094Z,994.69
2023-03-21T11:14:35.056Z,994.70
2023-03-21T11:15:36.273Z,994.71
2023-03-21T11:16:35.107Z,994.65
2023-03-21T11:17:36.040Z,994.66
2023-03-21T11:18:35.107Z,994.64
2023-03-21T11:19:35.026Z,994.64
2023-03-21T11:20:35.070Z,994.63
2023-03-21T11:21:35.014Z,994.62
2023-03-21T11:22:35.002Z,994.58
2023-03-21T11:23:34.994Z,994.60
2023-03-21T11:24:34.999Z,994.69
2023-03-21T11:25:35.003Z,994.61
2023-03-21T11:26:34.973Z,994.52
2023-03-21T11:27:34.981Z,994.63
2023-03-21T11:28:34.957Z,994.60
2023-03-21T11:29:34.970Z,994.66
2023-03-21T11:30:35.004Z,994.58
2023-03-21T11:31:34.946Z,994.65
2023-03-21T11:32:34.941Z,994.59
2023-03-21T11:33:34.919Z,994.65
2023-03-21T11:34:34.912Z,994.63
2023-03-21T11:35:34.903Z,994.56
2023-03-21T11:36:34.927Z,994.54
2023-03-21T11:37:34.881Z,994.55
2023-03-21T11:38:34.878Z,994.54
2023-03-21T11:39:34.872Z,994.58
2023-03-21T11:40:34.870Z,994.60
2023-03-21T11:41:35.252Z,994.45
2023-03-21T11:42:34.854Z,994.53
2023-03-21T11:43:34.839Z,994.57
2023-03-21T11:44:34.838Z,994.54
2023-03-21T11:45:34.833Z,994.53
2023-03-21T11:46:34.921Z,994.54
2023-03-21T11:47:34.813Z,994.49
2023-03-21T11:48:34.810Z,994.49
2023-03-21T11:49:34.797Z,994.53
2023-03-21T11:50:34.801Z,994.53
2023-03-21T11:51:34.821Z,994.60
2023-03-21T11:52:34.783Z,994.52
2023-03-21T11:53:34.758Z,994.59
2023-03-21T11:54:34.762Z,994.51
2023-03-21T11:55:34.750Z,994.52
2023-03-21T11:56:34.777Z,994.56
2023-03-21T11:57:34.751Z,994.58
2023-03-21T11:58:34.748Z,994.49
2023-03-21T11:59:34.739Z,994.48
2023-03-21T12:00:34.715Z,994.47
2023-03-21T12:01:34.729Z,994.49
2023-03-21T12:02:34.756Z,994.39
2023-03-21T12:03:46.830Z,994.46
2023-03-21T12:04:36.698Z,994.44
2023-03-21T12:05:34.679Z,994.25
2023-03-21T12:06:34.686Z,994.41
2023-03-21T12:07:34.650Z,994.40
2023-03-21T12:08:34.649Z,994.38
2023-03-21T12:09:34.650Z,994.35
2023-03-21T12:10:34.638Z,994.36
2023-03-21T12:11:34.657Z,994.40
2023-03-21T12:12:39.138Z,994.34
2023-03-21T12:13:35.613Z,994.36
2023-03-21T12:14:34.605Z,994.38
2023-03-21T12:15:34.601Z,994.29
2023-03-21T12:16:34.680Z,994.37
2023-03-21T12:17:34.665Z,994.36
2023-03-21T12:18:34.580Z,994.36
2023-03-21T12:19:34.564Z,994.31
2023-03-21T12:20:34.549Z,994.25
2023-03-21T12:21:35.575Z,994.24
2023-03-21T12:22:34.550Z,994.29
2023-03-21T12:23:34.629Z,994.30
2023-03-21T12:24:34.561Z,994.32
2023-03-21T12:25:34.598Z,994.27
2023-03-21T12:26:34.540Z,994.24
2023-03-21T12:27:34.506Z,994.27
2023-03-21T12:28:34.508Z,994.32